Aeroporto :
LOGIN :

Iscrizione | Disclaimer

   EN    FR    IT 

 










Sommario :    VFR   VFR Marginale   IFR   IFR Intensivo   IFR Molto Intensivo
Visibilità : 
Base nubi : 
>= 8 km
>= 3000ft
5 / 8 km
1000 / 3000 ft
1500m / 5 km
500 / 1000 ft
800 / 1500m
200 / 500 ft
< 800m
< 200 ft
Simboli :   Temporali  Nebbia  Neve Forte  Precipitazioni Forti  Vento > 20 kt
SIGMETs :   Varie  Temporali  Ghiacco  Turbolenza  Onda orograficha  Ceneri Vulcaniche






- Altitudine del aeroporto : 46 ft
- Codice IATA : SNN


EINN - Shannon

ULTIMO METAR :
  • 241700Z 28024KT 9999 -SHRA FEW018CB SCT024 BKN040 08/04 Q1008 NOSIG

METARs OBSOLETI :
  • 241630Z 27018G28KT 9999 -SHRA FEW018CB SCT046 07/04 Q1007 NOSIG
  • 241600Z 27014KT 9999 FEW022 SCT030 08/06 Q1007 NOSIG
  • 241530Z 29018KT 9999 FEW018CB SCT038 09/04 Q1007 NOSIG
  • 241500Z 28021G31KT 9999 -SHRA FEW018CB SCT025 BKN060 09/04 Q1007 NOSIG
  • 241430Z 28020KT 9999 -SHRA FEW018CB SCT025 BKN037 09/04 Q1006 NOSIG

TAF TAF EINN
Valido dal 24 a 12 ore il 25 a 12 ore UTC


241100Z 2412/2512 29018G30KT 9999 FEW018 SCT030
PROB40
TEMPO 2412/2512 -SHRAGS FEW018CB BKN020
BECMG 2418/2420 25012KT
TEMPO 2509/2512 28017G30KT



MetMap, La meteo Aeronautica in un colpo d'occhio ! - Copyright ORBIFLY Dicembre 2007 - Disclaimer

ORBIFLY MET'MAP TEAM :

Programmazione e sviluppo : Alexandra Zaïnal
Concezione : Baudouin d'Aumeries
Aiuto per la programmazione : Marc-Olivier Méhu
Supporto tecnico e logistico : Manuel Goepfert
Aiuto per la traduzione : Arnaldo La Scala

Contatto : metmap@orbifly.com




FONTI E CREDITI :

   NOAA